^^
Grace C. Lehan Memorial Weather Station Historical Data
Daily Summary for June 11, 2022 Units:  Both    English   Metric
Daily Weekly Monthly Yearly
  High: Low: Average:
Temperature: 89 °F /  31.7 °C 69.4 °F /  20.8 °C 78.2 °F /  25.7 °C
Dew Point: 67.5 °F /  19.7 °C 60.1 °F /  15.6 °C 63.7 °F /  17.6 °C
Humidity: 83% 41.6% 63%
Wind Speed: 4.1mph /  6.6km/h - 0.3mph /  0.5km/h
Wind Gust: 15mph /  24.1km/h - -
Wind- - South
Pressure: 29.95 in /  1014.1 hPa 29.78 in /  1008.4 hPa -
Precipitation: 0.01 in /  0.25 mm    
 
 
Tabular Data for June 11, 2022
Time Temperature Dew Point Pressure Wind Wind Speed Wind Gust Humidity Rainfall Rate (Hourly) solar
00:00 73.2 °F /  22.9 °C 62 °F /  16.7 °C 29.95in /  1014.1hPa Calm     68% 0.00in /  0mm 0 W/m2
00:09 73.3 °F /  22.9 °C 62.9 °F /  17.2 °C 29.95in /  1014.1hPa Calm     69.9% 0.00in /  0mm 0 W/m2
00:14 73.3 °F /  22.9 °C 63 °F /  17.2 °C 29.95in /  1014.1hPa Calm     70.1% 0.00in /  0mm 0 W/m2
00:19 73.3 °F /  22.9 °C 63 °F /  17.2 °C 29.95in /  1014.1hPa Calm     70.2% 0.00in /  0mm 0 W/m2
00:24 73.3 °F /  22.9 °C 63.2 °F /  17.3 °C 29.95in /  1014.1hPa Calm     70.6% 0.00in /  0mm 0 W/m2
00:29 73.3 °F /  22.9 °C 63.5 °F /  17.5 °C 29.95in /  1014.1hPa Calm     71.5% 0.00in /  0mm 0 W/m2
00:34 73.3 °F /  22.9 °C 63.7 °F /  17.6 °C 29.95in /  1014.1hPa Calm     72% 0.00in /  0mm 0 W/m2
00:39 73.3 °F /  22.9 °C 63.7 °F /  17.6 °C 29.94in /  1013.8hPa Calm     72% 0.00in /  0mm 0 W/m2
00:44 73.3 °F /  22.9 °C 63.7 °F /  17.6 °C 29.94in /  1013.8hPa Calm     72% 0.00in /  0mm 0 W/m2
00:49 73.3 °F /  22.9 °C 63.7 °F /  17.6 °C 29.94in /  1013.8hPa Calm     72% 0.00in /  0mm 0 W/m2
00:54 73.2 °F /  22.9 °C 63.8 °F /  17.7 °C 29.94in /  1013.8hPa Calm     72.3% 0.00in /  0mm 0 W/m2
00:59 73.2 °F /  22.9 °C 63.7 °F /  17.6 °C 29.94in /  1013.8hPa Calm     72.2% 0.00in /  0mm 0 W/m2
01:04 73.2 °F /  22.9 °C 63.6 °F /  17.6 °C 29.94in /  1013.8hPa Calm     72% 0.00in /  0mm 0 W/m2
01:09 73.1 °F /  22.8 °C 63.7 °F /  17.6 °C 29.94in /  1013.8hPa Calm     72.4% 0.00in /  0mm 0 W/m2
01:14 73.1 °F /  22.8 °C 63.9 °F /  17.7 °C 29.94in /  1013.8hPa Calm     73% 0.00in /  0mm 0 W/m2
01:19 73.1 °F /  22.8 °C 63.9 °F /  17.7 °C 29.94in /  1013.8hPa Calm     73% 0.00in /  0mm 0 W/m2
01:24 73.1 °F /  22.8 °C 63.9 °F /  17.7 °C 29.94in /  1013.8hPa Calm     73% 0.00in /  0mm 0 W/m2
01:29 73.1 °F /  22.8 °C 63.9 °F /  17.7 °C 29.94in /  1013.8hPa Calm     73% 0.00in /  0mm 0 W/m2
01:34 73.1 °F /  22.8 °C 63.9 °F /  17.7 °C 29.93in /  1013.4hPa Calm     73% 0.00in /  0mm 0 W/m2
01:39 73.1 °F /  22.8 °C 63.9 °F /  17.7 °C 29.93in /  1013.4hPa Calm     73% 0.00in /  0mm 0 W/m2
01:44 73.1 °F /  22.8 °C 64.2 °F /  17.9 °C 29.93in /  1013.4hPa Calm     73.7% 0.00in /  0mm 0 W/m2
01:49 73.1 °F /  22.8 °C 64.3 °F /  17.9 °C 29.93in /  1013.4hPa Calm     74% 0.00in /  0mm 0 W/m2
01:54 73.1 °F /  22.8 °C 64.3 °F /  17.9 °C 29.93in /  1013.4hPa Calm     74% 0.00in /  0mm 0 W/m2
01:59 73.1 °F /  22.8 °C 64.3 °F /  17.9 °C 29.93in /  1013.4hPa Calm     74% 0.00in /  0mm 0 W/m2
02:04 73 °F /  22.8 °C 64.4 °F /  18 °C 29.93in /  1013.4hPa Calm     74.4% 0.00in /  0mm 0 W/m2
02:09 73 °F /  22.8 °C 64.6 °F /  18.1 °C 29.93in /  1013.4hPa Calm     75% 0.00in /  0mm 0 W/m2
02:14 72.9 °F /  22.7 °C 64.6 °F /  18.1 °C 29.93in /  1013.4hPa Calm     75% 0.00in /  0mm 0 W/m2
02:19 72.8 °F /  22.7 °C 64.5 °F /  18.1 °C 29.93in /  1013.4hPa Calm     75% 0.00in /  0mm 0 W/m2
02:24 72.8 °F /  22.7 °C 64.4 °F /  18 °C 29.93in /  1013.4hPa Calm     75% 0.00in /  0mm 0 W/m2
02:29 72.7 °F /  22.6 °C 64.6 °F /  18.1 °C 29.92in /  1013.1hPa Calm     75.8% 0.00in /  0mm 0 W/m2
02:34 72.6 °F /  22.6 °C 64.6 °F /  18.1 °C 29.92in /  1013.1hPa Calm     76% 0.00in /  0mm 0 W/m2
02:39 72.6 °F /  22.6 °C 64.6 °F /  18.1 °C 29.92in /  1013.1hPa Calm     76% 0.00in /  0mm 0 W/m2
02:44 72.6 °F /  22.6 °C 64.4 °F /  18 °C 29.92in /  1013.1hPa Calm     75.6% 0.00in /  0mm 0 W/m2
02:49 72.5 °F /  22.5 °C 64.1 °F /  17.8 °C 29.92in /  1013.1hPa Calm     75% 0.00in /  0mm 0 W/m2
02:54 72.4 °F /  22.4 °C 64.1 °F /  17.8 °C 29.92in /  1013.1hPa Calm     75% 0.00in /  0mm 0 W/m2
02:59 72.4 °F /  22.4 °C 64 °F /  17.8 °C 29.92in /  1013.1hPa Calm     75% 0.00in /  0mm 0 W/m2
03:04 72.4 °F /  22.4 °C 64.2 °F /  17.9 °C 29.92in /  1013.1hPa Calm     75.5% 0.00in /  0mm 0 W/m2
03:09 72.4 °F /  22.4 °C 64.4 °F /  18 °C 29.91in /  1012.8hPa Calm     76% 0.00in /  0mm 0 W/m2
03:14 72.4 °F /  22.4 °C 64.1 °F /  17.8 °C 29.91in /  1012.8hPa Calm     75.2% 0.00in /  0mm 0 W/m2
03:19 72.3 °F /  22.4 °C 64 °F /  17.8 °C 29.91in /  1012.8hPa Calm     75% 0.00in /  0mm 0 W/m2
03:24 72.3 °F /  22.4 °C 63.9 °F /  17.7 °C 29.91in /  1012.8hPa Calm     75% 0.00in /  0mm 0 W/m2
03:29 72.3 °F /  22.4 °C 63.9 °F /  17.7 °C 29.91in /  1012.8hPa Calm     75% 0.00in /  0mm 0 W/m2
03:34 72.2 °F /  22.3 °C 63.9 °F /  17.7 °C 29.91in /  1012.8hPa Calm     75% 0.00in /  0mm 0 W/m2
03:38 72.2 °F /  22.3 °C 63.8 °F /  17.7 °C 29.90in /  1012.4hPa Calm     75% 0.00in /  0mm 0 W/m2
04:09 71.4 °F /  21.9 °C 63.1 °F /  17.3 °C 29.89in /  1012.1hPa Calm     75% 0.00in /  0mm 0 W/m2
04:14 71.3 °F /  21.8 °C 63.3 °F /  17.4 °C 29.89in /  1012.1hPa Calm     76% 0.00in /  0mm 0 W/m2
04:19 71.1 °F /  21.7 °C 63.2 °F /  17.3 °C 29.89in /  1012.1hPa Calm     76% 0.00in /  0mm 0 W/m2
04:24 70.9 °F /  21.6 °C 63 °F /  17.2 °C 29.89in /  1012.1hPa Calm     76% 0.00in /  0mm 0 W/m2
04:29 70.8 °F /  21.6 °C 62.9 °F /  17.2 °C 29.89in /  1012.1hPa Calm     76.2% 0.00in /  0mm 0 W/m2
04:34 70.6 °F /  21.4 °C 63.1 °F /  17.3 °C 29.89in /  1012.1hPa Calm     77% 0.00in /  0mm 0 W/m2
04:39 70.5 °F /  21.4 °C 63 °F /  17.2 °C 29.89in /  1012.1hPa Calm     77% 0.00in /  0mm 0 W/m2
04:44 70.4 °F /  21.3 °C 63.1 °F /  17.3 °C 29.89in /  1012.1hPa Calm     77.6% 0.00in /  0mm 0 W/m2
04:49 70.3 °F /  21.3 °C 63.1 °F /  17.3 °C 29.89in /  1012.1hPa Calm     78% 0.00in /  0mm 0 W/m2
04:54 70.1 °F /  21.2 °C 63 °F /  17.2 °C 29.89in /  1012.1hPa Calm     78% 0.00in /  0mm 0 W/m2
04:59 70 °F /  21.1 °C 62.9 °F /  17.2 °C 29.89in /  1012.1hPa Calm     78.1% 0.00in /  0mm 0 W/m2
05:04 69.9 °F /  21.1 °C 63.1 °F /  17.3 °C 29.89in /  1012.1hPa Calm     79% 0.00in /  0mm 0 W/m2
05:09 69.8 °F /  21 °C 63 °F /  17.2 °C 29.89in /  1012.1hPa Calm     79% 0.00in /  0mm 0 W/m2
05:14 69.6 °F /  20.9 °C 62.8 °F /  17.1 °C 29.88in /  1011.7hPa Calm     79% 0.00in /  0mm 0 W/m2
05:19 69.5 °F /  20.8 °C 63 °F /  17.2 °C 29.88in /  1011.7hPa Calm     79.7% 0.00in /  0mm 0 W/m2
05:24 69.5 °F /  20.8 °C 63.1 °F /  17.3 °C 29.88in /  1011.7hPa Calm     80% 0.00in /  0mm 0 W/m2
05:29 69.4 °F /  20.8 °C 63 °F /  17.2 °C 29.88in /  1011.7hPa Calm     80% 0.00in /  0mm 0 W/m2
05:34 69.4 °F /  20.8 °C 63 °F /  17.2 °C 29.88in /  1011.7hPa Calm     80% 0.00in /  0mm 0 W/m2
05:39 69.4 °F /  20.8 °C 63 °F /  17.2 °C 29.88in /  1011.7hPa Calm     80% 0.00in /  0mm 0 W/m2
05:44 69.4 °F /  20.8 °C 63 °F /  17.2 °C 29.88in /  1011.7hPa Calm     80.2% 0.00in /  0mm 0 W/m2
05:49 69.5 °F /  20.8 °C 63.4 °F /  17.4 °C 29.89in /  1012.1hPa Calm     81% 0.00in /  0mm 0 W/m2
05:54 69.5 °F /  20.8 °C 63.4 °F /  17.4 °C 29.89in /  1012.1hPa Calm     81% 0.00in /  0mm 0 W/m2
05:59 69.6 °F /  20.9 °C 63.6 °F /  17.6 °C 29.89in /  1012.1hPa Calm     81.2% 0.00in /  0mm 0 W/m2
06:04 69.6 °F /  20.9 °C 63.9 °F /  17.7 °C 29.89in /  1012.1hPa Calm     81.9% 0.00in /  0mm 5 W/m2
06:09 69.7 °F /  20.9 °C 64 °F /  17.8 °C 29.89in /  1012.1hPa Calm     82% 0.00in /  0mm 5 W/m2
06:14 69.7 °F /  20.9 °C 63.8 °F /  17.7 °C 29.89in /  1012.1hPa Calm     81.6% 0.00in /  0mm 7 W/m2
06:19 69.8 °F /  21 °C 64 °F /  17.8 °C 29.89in /  1012.1hPa Calm     81.8% 0.00in /  0mm 7 W/m2
06:24 69.8 °F /  21 °C 64.1 °F /  17.8 °C 29.89in /  1012.1hPa Calm     82% 0.00in /  0mm 9 W/m2
06:29 69.9 °F /  21.1 °C 64.1 °F /  17.8 °C 29.89in /  1012.1hPa Calm     82% 0.00in /  0mm 11 W/m2
06:34 69.9 °F /  21.1 °C 63.9 °F /  17.7 °C 29.89in /  1012.1hPa Calm     81.2% 0.00in /  0mm 11 W/m2
06:39 70 °F /  21.1 °C 63.9 °F /  17.7 °C 29.89in /  1012.1hPa Calm     81% 0.00in /  0mm 18 W/m2
06:44 70.1 °F /  21.2 °C 64 °F /  17.8 °C 29.89in /  1012.1hPa Calm     81% 0.00in /  0mm 23 W/m2
06:49 70.1 °F /  21.2 °C 63.7 °F /  17.6 °C 29.89in /  1012.1hPa Calm     80.1% 0.00in /  0mm 23 W/m2
06:54 70.2 °F /  21.2 °C 63.8 °F /  17.7 °C 29.89in /  1012.1hPa Calm     80% 0.00in /  0mm 23 W/m2
06:59 70.3 °F /  21.3 °C 63.7 °F /  17.6 °C 29.89in /  1012.1hPa Calm     79.5% 0.00in /  0mm 30 W/m2
07:04 70.4 °F /  21.3 °C 63.6 °F /  17.6 °C 29.89in /  1012.1hPa Calm     79.2% 0.00in /  0mm 42 W/m2
07:09 70.4 °F /  21.3 °C 63.6 °F /  17.6 °C 29.89in /  1012.1hPa Calm     79% 0.00in /  0mm 51 W/m2
07:14 70.4 °F /  21.3 °C 63.3 °F /  17.4 °C 29.89in /  1012.1hPa Calm     78.2% 0.00in /  0mm 56 W/m2
07:19 70.5 °F /  21.4 °C 63.3 °F /  17.4 °C 29.89in /  1012.1hPa Calm     78% 0.00in /  0mm 69 W/m2
07:24 70.5 °F /  21.4 °C 63 °F /  17.2 °C 29.89in /  1012.1hPa Calm     77.1% 0.00in /  0mm 69 W/m2
07:29 70.7 °F /  21.5 °C 63.1 °F /  17.3 °C 29.89in /  1012.1hPa Calm     77% 0.00in /  0mm 67 W/m2
07:34 70.8 °F /  21.6 °C 63.4 °F /  17.4 °C 29.89in /  1012.1hPa Calm     77.4% 0.00in /  0mm 74 W/m2
07:39 71 °F /  21.7 °C 63.5 °F /  17.5 °C 29.89in /  1012.1hPa Calm     77.3% 0.00in /  0mm 90 W/m2
07:44 71.1 °F /  21.7 °C 63.9 °F /  17.7 °C 29.89in /  1012.1hPa Calm     77.8% 0.00in /  0mm 105 W/m2
07:49 71.4 °F /  21.9 °C 64.3 °F /  17.9 °C 29.89in /  1012.1hPa Calm     78.3% 0.00in /  0mm 107 W/m2
07:54 71.5 °F /  21.9 °C 64.2 °F /  17.9 °C 29.89in /  1012.1hPa Calm     77.8% 0.00in /  0mm 100 W/m2
07:59 71.7 °F /  22.1 °C 64.2 °F /  17.9 °C 29.89in /  1012.1hPa Calm     77.2% 0.00in /  0mm 107 W/m2
08:00 71.8 °F /  22.1 °C 64.2 °F /  17.9 °C 29.89in /  1012.1hPa Calm     77% 0.00in /  0mm 107 W/m2
08:09 72.1 °F /  22.3 °C 64.9 °F /  18.3 °C 29.89in /  1012.1hPa Calm     78% 0.00in /  0mm 153 W/m2
08:14 72.3 °F /  22.4 °C 65.1 °F /  18.4 °C 29.89in /  1012.1hPa Calm     78% 0.00in /  0mm 158 W/m2
08:19 72.6 °F /  22.6 °C 65.2 °F /  18.4 °C 29.89in /  1012.1hPa Calm     77.7% 0.00in /  0mm 146 W/m2
08:24 72.8 °F /  22.7 °C 65.2 °F /  18.4 °C 29.89in /  1012.1hPa Calm     77% 0.00in /  0mm 118 W/m2
08:29 73 °F /  22.8 °C 65.5 °F /  18.6 °C 29.89in /  1012.1hPa Calm     77.5% 0.00in /  0mm 120 W/m2
08:34 73 °F /  22.8 °C 65.5 °F /  18.6 °C 29.89in /  1012.1hPa Calm     77.2% 0.00in /  0mm 118 W/m2
08:39 73.2 °F /  22.9 °C 65.7 °F /  18.7 °C 29.89in /  1012.1hPa Calm     77.5% 0.00in /  0mm 114 W/m2
08:44 73.2 °F /  22.9 °C 65.5 °F /  18.6 °C 29.89in /  1012.1hPa Calm     76.8% 0.00in /  0mm 111 W/m2
08:49 73.3 °F /  22.9 °C 65.7 °F /  18.7 °C 29.89in /  1012.1hPa Calm     77% 0.00in /  0mm 113 W/m2
08:54 73.3 °F /  22.9 °C 65.6 °F /  18.7 °C 29.88in /  1011.7hPa Calm     76.8% 0.00in /  0mm 121 W/m2
08:59 73.4 °F /  23 °C 65.6 °F /  18.7 °C 29.88in /  1011.7hPa Calm     76.5% 0.00in /  0mm 125 W/m2
09:04 73.4 °F /  23 °C 65.1 °F /  18.4 °C 29.88in /  1011.7hPa Calm     75.5% 0.00in /  0mm 132 W/m2
09:09 73.3 °F /  22.9 °C 64.9 °F /  18.3 °C 29.88in /  1011.7hPa Calm     75% 0.00in /  0mm 139 W/m2
09:14 73.2 °F /  22.9 °C 64.9 °F /  18.3 °C 29.88in /  1011.7hPa Calm     75.2% 0.00in /  0mm 144 W/m2
09:19 73.3 °F /  22.9 °C 65.2 °F /  18.4 °C 29.89in /  1012.1hPa Calm     75.8% 0.00in /  0mm 149 W/m2
09:24 73.4 °F /  23 °C 65.4 °F /  18.6 °C 29.88in /  1011.7hPa Calm     76.1% 0.00in /  0mm 162 W/m2
09:29 73.6 °F /  23.1 °C 65.8 °F /  18.8 °C 29.88in /  1011.7hPa Calm     76.8% 0.00in /  0mm 190 W/m2
09:34 73.7 °F /  23.2 °C 65.7 °F /  18.7 °C 29.88in /  1011.7hPa Calm     76% 0.00in /  0mm 230 W/m2
09:39 73.9 °F /  23.3 °C 65.8 °F /  18.8 °C 29.88in /  1011.7hPa Calm     76% 0.00in /  0mm 267 W/m2
09:44 74.2 °F /  23.4 °C 66.4 °F /  19.1 °C 29.88in /  1011.7hPa Calm     76.7% 0.00in /  0mm 267 W/m2
09:49 74.5 °F /  23.6 °C 66.3 °F /  19.1 °C 29.88in /  1011.7hPa Calm     75.7% 0.00in /  0mm 264 W/m2
09:54 74.6 °F /  23.7 °C 66.1 °F /  18.9 °C 29.88in /  1011.7hPa Calm     75% 0.00in /  0mm 257 W/m2
09:59 74.8 °F /  23.8 °C 66.6 °F /  19.2 °C 29.88in /  1011.7hPa Calm     75.7% 0.00in /  0mm 318 W/m2
10:04 74.9 °F /  23.8 °C 66.6 °F /  19.2 °C 29.88in /  1011.7hPa Calm     75.3% 0.00in /  0mm 318 W/m2
10:09 75.2 °F /  24 °C 67.5 °F /  19.7 °C 29.87in /  1011.4hPa Calm     76.9% 0.00in /  0mm 274 W/m2
10:14 75.5 °F /  24.2 °C 66.8 °F /  19.3 °C 29.87in /  1011.4hPa Calm     74.5% 0.00in /  0mm 362 W/m2
10:19 75.8 °F /  24.3 °C 66 °F /  18.9 °C 29.87in /  1011.4hPa Calm     71.7% 0.00in /  0mm 439 W/m2
10:24 76.2 °F /  24.6 °C 66.3 °F /  19.1 °C 29.87in /  1011.4hPa Calm     71.5% 0.00in /  0mm 452 W/m2
10:29 76.7 °F /  24.8 °C 65.4 °F /  18.6 °C 29.87in /  1011.4hPa Calm     68.1% 0.00in /  0mm 464 W/m2
10:34 77.1 °F /  25.1 °C 65.1 °F /  18.4 °C 29.87in /  1011.4hPa Calm   1mph /  1.6km/h 66.5% 0.00in /  0mm 490 W/m2
10:39 77.4 °F /  25.2 °C 64.2 °F /  17.9 °C 29.87in /  1011.4hPa NE 0.2mph /  0.3km/h 2mph /  3.2km/h 63.7% 0.00in /  0mm 359 W/m2
10:44 77.6 °F /  25.3 °C 63.7 °F /  17.6 °C 29.87in /  1011.4hPa Calm   2mph /  3.2km/h 62.3% 0.00in /  0mm 459 W/m2
10:49 77.9 °F /  25.5 °C 64 °F /  17.8 °C 29.87in /  1011.4hPa Calm   2mph /  3.2km/h 62.4% 0.00in /  0mm 654 W/m2
10:54 78.4 °F /  25.8 °C 64.6 °F /  18.1 °C 29.87in /  1011.4hPa North 0.7mph /  1.1km/h 4mph /  6.4km/h 62.5% 0.00in /  0mm 872 W/m2
10:59 79.3 °F /  26.3 °C 64.5 °F /  18.1 °C 29.87in /  1011.4hPa North 0.4mph /  0.6km/h 4mph /  6.4km/h 60.6% 0.00in /  0mm 547 W/m2
11:04 80 °F /  26.7 °C 64.5 °F /  18.1 °C 29.87in /  1011.4hPa NNE 0.7mph /  1.1km/h 4mph /  6.4km/h 59.4% 0.00in /  0mm 698 W/m2
11:09 80.4 °F /  26.9 °C 64.2 °F /  17.9 °C 29.87in /  1011.4hPa NNE 0.1mph /  0.2km/h 2mph /  3.2km/h 57.9% 0.00in /  0mm 698 W/m2
11:14 80.6 °F /  27 °C 64 °F /  17.8 °C 29.86in /  1011.1hPa NNE 0.1mph /  0.2km/h 2mph /  3.2km/h 57.1% 0.00in /  0mm 777 W/m2
11:19 81 °F /  27.2 °C 64.5 °F /  18.1 °C 29.86in /  1011.1hPa NNE 0.8mph /  1.3km/h 5mph /  8km/h 57.3% 0.00in /  0mm 780 W/m2
11:24 81.6 °F /  27.6 °C 63.9 °F /  17.7 °C 29.86in /  1011.1hPa ENE 1.2mph /  1.9km/h 5mph /  8km/h 55% 0.00in /  0mm 800 W/m2
11:29 81.9 °F /  27.7 °C 63.4 °F /  17.4 °C 29.86in /  1011.1hPa East 0.2mph /  0.3km/h 5mph /  8km/h 53.6% 0.00in /  0mm 786 W/m2
11:34 82.1 °F /  27.8 °C 64.1 °F /  17.8 °C 29.86in /  1011.1hPa ENE 0.4mph /  0.6km/h 5mph /  8km/h 54.6% 0.00in /  0mm 779 W/m2
11:39 82.5 °F /  28.1 °C 64 °F /  17.8 °C 29.86in /  1011.1hPa ENE 0.6mph /  1km/h 3mph /  4.8km/h 53.8% 0.00in /  0mm 585 W/m2
11:44 82.7 °F /  28.2 °C 64.3 °F /  17.9 °C 29.86in /  1011.1hPa NE 0.3mph /  0.5km/h 3mph /  4.8km/h 53.8% 0.00in /  0mm 1051 W/m2
11:49 83.2 °F /  28.4 °C 64.3 °F /  17.9 °C 29.86in /  1011.1hPa ENE 0.6mph /  1km/h 4mph /  6.4km/h 53.1% 0.00in /  0mm 1014 W/m2
11:54 83.8 °F /  28.8 °C 63.2 °F /  17.3 °C 29.86in /  1011.1hPa ENE 0.6mph /  1km/h 4mph /  6.4km/h 50.2% 0.00in /  0mm 1014 W/m2
11:59 84.2 °F /  29 °C 64.2 °F /  17.9 °C 29.86in /  1011.1hPa ENE 0.5mph /  0.8km/h 4mph /  6.4km/h 51.1% 0.00in /  0mm 962 W/m2
12:00 84.3 °F /  29.1 °C 63.1 °F /  17.3 °C 29.86in /  1011.1hPa Calm   4mph /  6.4km/h 49% 0.00in /  0mm 513 W/m2
12:09 83.7 °F /  28.7 °C 62.9 °F /  17.2 °C 29.86in /  1011.1hPa ENE 0.8mph /  1.3km/h 4mph /  6.4km/h 49.7% 0.00in /  0mm 480 W/m2
12:14 83.2 °F /  28.4 °C 62.4 °F /  16.9 °C 29.86in /  1011.1hPa ENE 0.6mph /  1km/h 4mph /  6.4km/h 49.7% 0.00in /  0mm 555 W/m2
12:19 82.9 °F /  28.3 °C 62.4 °F /  16.9 °C 29.86in /  1011.1hPa Calm   4mph /  6.4km/h 50.1% 0.00in /  0mm 568 W/m2
12:24 82.8 °F /  28.2 °C 63.9 °F /  17.7 °C 29.86in /  1011.1hPa ENE 0.2mph /  0.3km/h 4mph /  6.4km/h 53.1% 0.00in /  0mm 406 W/m2
12:29 82.9 °F /  28.3 °C 64.7 °F /  18.2 °C 29.86in /  1011.1hPa ENE 0.3mph /  0.5km/h 4mph /  6.4km/h 54.2% 0.00in /  0mm 394 W/m2
12:34 83.1 °F /  28.4 °C 64.5 °F /  18.1 °C 29.86in /  1011.1hPa ENE 0.6mph /  1km/h 4mph /  6.4km/h 53.4% 0.00in /  0mm 837 W/m2
12:39 83.4 °F /  28.6 °C 64.5 °F /  18.1 °C 29.85in /  1010.7hPa ENE 0.7mph /  1.1km/h 4mph /  6.4km/h 53% 0.00in /  0mm 724 W/m2
12:44 83.5 °F /  28.6 °C 63.6 °F /  17.6 °C 29.85in /  1010.7hPa ENE 0.1mph /  0.2km/h 4mph /  6.4km/h 51.3% 0.00in /  0mm 724 W/m2
12:49 83.2 °F /  28.4 °C 63.1 °F /  17.3 °C 29.85in /  1010.7hPa ENE 0.2mph /  0.3km/h 4mph /  6.4km/h 50.9% 0.00in /  0mm 362 W/m2
12:54 82.7 °F /  28.2 °C 62.3 °F /  16.8 °C 29.85in /  1010.7hPa ENE 0.4mph /  0.6km/h 4mph /  6.4km/h 50.2% 0.00in /  0mm 696 W/m2
12:59 82.3 °F /  27.9 °C 62.6 °F /  17 °C 29.85in /  1010.7hPa ENE 0.2mph /  0.3km/h 4mph /  6.4km/h 51.4% 0.00in /  0mm 1116 W/m2
13:04 82.7 °F /  28.2 °C 63.6 °F /  17.6 °C 29.85in /  1010.7hPa Calm   4mph /  6.4km/h 52.6% 0.00in /  0mm 810 W/m2
13:09 83.3 °F /  28.5 °C 63.6 °F /  17.6 °C 29.84in /  1010.4hPa ENE 0.1mph /  0.2km/h 2mph /  3.2km/h 51.4% 0.00in /  0mm 1202 W/m2
13:14 83.9 °F /  28.8 °C 64.4 °F /  18 °C 29.84in /  1010.4hPa NW 1.7mph /  2.7km/h 5mph /  8km/h 51.9% 0.00in /  0mm 865 W/m2
13:19 84.6 °F /  29.2 °C 64 °F /  17.8 °C 29.84in /  1010.4hPa West 1.1mph /  1.8km/h 5mph /  8km/h 50.1% 0.00in /  0mm 657 W/m2
13:24 84.9 °F /  29.4 °C 64.3 °F /  17.9 °C 29.84in /  1010.4hPa Calm   5mph /  8km/h 50.2% 0.00in /  0mm 487 W/m2
13:29 85 °F /  29.4 °C 64 °F /  17.8 °C 29.84in /  1010.4hPa West 0.2mph /  0.3km/h 5mph /  8km/h 49.6% 0.00in /  0mm 485 W/m2
13:34 85.2 °F /  29.6 °C 63.8 °F /  17.7 °C 29.83in /  1010hPa Calm   5mph /  8km/h 48.9% 0.00in /  0mm 520 W/m2
13:39 85.1 °F /  29.5 °C 63.8 °F /  17.7 °C 29.83in /  1010hPa West 0.4mph /  0.6km/h 3mph /  4.8km/h 49% 0.00in /  0mm 520 W/m2
13:44 85 °F /  29.4 °C 63.4 °F /  17.4 °C 29.83in /  1010hPa Calm   3mph /  4.8km/h 48.3% 0.00in /  0mm 439 W/m2
13:49 85 °F /  29.4 °C 63.5 °F /  17.5 °C 29.83in /  1010hPa Calm   3mph /  4.8km/h 48.7% 0.00in /  0mm 399 W/m2
13:54 85.2 °F /  29.6 °C 64.1 °F /  17.8 °C 29.82in /  1009.7hPa WNW 0.5mph /  0.8km/h 4mph /  6.4km/h 49.4% 0.00in /  0mm 1086 W/m2
13:59 85.5 °F /  29.7 °C 63.9 °F /  17.7 °C 29.82in /  1009.7hPa WNW 0.5mph /  0.8km/h 4mph /  6.4km/h 48.6% 0.00in /  0mm 1086 W/m2
14:04 85.7 °F /  29.8 °C 63.1 °F /  17.3 °C 29.82in /  1009.7hPa WNW 0.2mph /  0.3km/h 4mph /  6.4km/h 47% 0.00in /  0mm 1032 W/m2
14:09 85.6 °F /  29.8 °C 63.3 °F /  17.4 °C 29.82in /  1009.7hPa WNW 0.3mph /  0.5km/h 4mph /  6.4km/h 47.4% 0.00in /  0mm 1004 W/m2
14:14 85.8 °F /  29.9 °C 62.8 °F /  17.1 °C 29.82in /  1009.7hPa Calm   4mph /  6.4km/h 46.2% 0.00in /  0mm 626 W/m2
14:19 86.1 °F /  30.1 °C 63.7 °F /  17.6 °C 29.82in /  1009.7hPa WSW 0.7mph /  1.1km/h 6mph /  9.7km/h 47.3% 0.00in /  0mm 1037 W/m2
14:24 86.3 °F /  30.2 °C 64 °F /  17.8 °C 29.82in /  1009.7hPa WSW 0.5mph /  0.8km/h 6mph /  9.7km/h 47.5% 0.00in /  0mm 788 W/m2
14:29 86.5 °F /  30.3 °C 64.6 °F /  18.1 °C 29.82in /  1009.7hPa West 0.2mph /  0.3km/h 6mph /  9.7km/h 48.2% 0.00in /  0mm 788 W/m2
14:34 86.8 °F /  30.4 °C 64.1 °F /  17.8 °C 29.82in /  1009.7hPa Calm   6mph /  9.7km/h 46.8% 0.00in /  0mm 701 W/m2
14:39 86.9 °F /  30.5 °C 64 °F /  17.8 °C 29.81in /  1009.4hPa West 0.2mph /  0.3km/h 3mph /  4.8km/h 46.5% 0.00in /  0mm 701 W/m2
14:44 87 °F /  30.6 °C 64.1 °F /  17.8 °C 29.81in /  1009.4hPa Calm   3mph /  4.8km/h 46.7% 0.00in /  0mm 541 W/m2
14:49 87.1 °F /  30.6 °C 64.6 °F /  18.1 °C 29.81in /  1009.4hPa WSW 0.6mph /  1km/h 10mph /  16.1km/h 47.2% 0.00in /  0mm 1053 W/m2
14:54 87.3 °F /  30.7 °C 64 °F /  17.8 °C 29.81in /  1009.4hPa SW 0.5mph /  0.8km/h 10mph /  16.1km/h 46% 0.00in /  0mm 1067 W/m2
14:59 87.5 °F /  30.8 °C 63.4 °F /  17.4 °C 29.81in /  1009.4hPa SSW 1mph /  1.6km/h 10mph /  16.1km/h 44.8% 0.00in /  0mm 858 W/m2
15:04 87.8 °F /  31 °C 64.1 °F /  17.8 °C 29.81in /  1009.4hPa WSW 0.8mph /  1.3km/h 10mph /  16.1km/h 45.5% 0.00in /  0mm 826 W/m2
15:09 88.2 °F /  31.2 °C 64 °F /  17.8 °C 29.81in /  1009.4hPa WSW 1.6mph /  2.6km/h 13mph /  20.9km/h 44.7% 0.00in /  0mm 826 W/m2
15:14 88.6 °F /  31.4 °C 64 °F /  17.8 °C 29.81in /  1009.4hPa West 0.2mph /  0.3km/h 13mph /  20.9km/h 44.1% 0.00in /  0mm 680 W/m2
15:19 88.9 °F /  31.6 °C 64.3 °F /  17.9 °C 29.81in /  1009.4hPa West 0.1mph /  0.2km/h 13mph /  20.9km/h 44.2% 0.00in /  0mm 652 W/m2
15:24 89 °F /  31.7 °C 63.4 °F /  17.4 °C 29.81in /  1009.4hPa WNW 1.1mph /  1.8km/h 13mph /  20.9km/h 42.7% 0.00in /  0mm 547 W/m2
15:29 88.7 °F /  31.5 °C 62.6 °F /  17 °C 29.81in /  1009.4hPa WNW 0.1mph /  0.2km/h 13mph /  20.9km/h 41.8% 0.00in /  0mm 547 W/m2
15:34 88.2 °F /  31.2 °C 62.5 °F /  16.9 °C 29.80in /  1009hPa Calm   13mph /  20.9km/h 42.5% 0.00in /  0mm 650 W/m2
15:39 87.8 °F /  31 °C 63 °F /  17.2 °C 29.80in /  1009hPa WNW 0.1mph /  0.2km/h 1mph /  1.6km/h 43.7% 0.00in /  0mm 547 W/m2
15:44 87.6 °F /  30.9 °C 62 °F /  16.7 °C 29.80in /  1009hPa WNW 0.1mph /  0.2km/h 2mph /  3.2km/h 42.4% 0.00in /  0mm 626 W/m2
15:49 87.4 °F /  30.8 °C 62.5 °F /  16.9 °C 29.80in /  1009hPa WNW 0.1mph /  0.2km/h 2mph /  3.2km/h 43.4% 0.00in /  0mm 580 W/m2
15:54 87.6 °F /  30.9 °C 63.4 °F /  17.4 °C 29.80in /  1009hPa WNW 0.3mph /  0.5km/h 2mph /  3.2km/h 44.6% 0.00in /  0mm 510 W/m2
15:59 87.9 °F /  31.1 °C 63.5 °F /  17.5 °C 29.80in /  1009hPa NW 1.5mph /  2.4km/h 4mph /  6.4km/h 44.4% 0.00in /  0mm 450 W/m2
16:00 87.9 °F /  31.1 °C 63.3 °F /  17.4 °C 29.79in /  1008.7hPa Calm   4mph /  6.4km/h 44% 0.00in /  0mm 279 W/m2
16:09 88.1 °F /  31.2 °C 62.4 °F /  16.9 °C 29.79in /  1008.7hPa WNW 4.1mph /  6.6km/h 13mph /  20.9km/h 42.4% 0.00in /  0mm 775 W/m2
16:14 88.1 °F /  31.2 °C 62.5 °F /  16.9 °C 29.79in /  1008.7hPa WNW 1.2mph /  1.9km/h 13mph /  20.9km/h 42.6% 0.00in /  0mm 650 W/m2
16:19 88.1 °F /  31.2 °C 62.7 °F /  17.1 °C 29.79in /  1008.7hPa WNW 1.5mph /  2.4km/h 13mph /  20.9km/h 42.8% 0.00in /  0mm 141 W/m2
16:24 88.2 °F /  31.2 °C 63.3 °F /  17.4 °C 29.79in /  1008.7hPa West 1mph /  1.6km/h 13mph /  20.9km/h 43.7% 0.00in /  0mm 134 W/m2
16:29 88.3 °F /  31.3 °C 63.3 °F /  17.4 °C 29.79in /  1008.7hPa WSW 0.6mph /  1km/h 13mph /  20.9km/h 43.5% 0.00in /  0mm 172 W/m2
16:34 88.4 °F /  31.3 °C 62.9 °F /  17.2 °C 29.79in /  1008.7hPa WSW 0.6mph /  1km/h 13mph /  20.9km/h 42.8% 0.00in /  0mm 163 W/m2
16:39 88.3 °F /  31.3 °C 62.2 °F /  16.8 °C 29.79in /  1008.7hPa WSW 0.4mph /  0.6km/h 3mph /  4.8km/h 41.8% 0.00in /  0mm 160 W/m2
16:44 88.1 °F /  31.2 °C 62.4 °F /  16.9 °C 29.79in /  1008.7hPa WSW 0.3mph /  0.5km/h 3mph /  4.8km/h 42.3% 0.00in /  0mm 183 W/m2
16:49 87.9 °F /  31.1 °C 62 °F /  16.7 °C 29.79in /  1008.7hPa WSW 0.3mph /  0.5km/h 3mph /  4.8km/h 42.2% 0.00in /  0mm 179 W/m2
16:54 87.7 °F /  30.9 °C 62.6 °F /  17 °C 29.79in /  1008.7hPa WSW 0.1mph /  0.2km/h 3mph /  4.8km/h 43.3% 0.00in /  0mm 160 W/m2
16:59 87.6 °F /  30.9 °C 62.3 °F /  16.8 °C 29.79in /  1008.7hPa WSW 0.3mph /  0.5km/h 3mph /  4.8km/h 43% 0.00in /  0mm 153 W/m2
17:04 87.4 °F /  30.8 °C 62.6 °F /  17 °C 29.79in /  1008.7hPa SW 0.9mph /  1.4km/h 6mph /  9.7km/h 43.6% 0.00in /  0mm 200 W/m2
17:09 87.2 °F /  30.7 °C 61.9 °F /  16.6 °C 29.79in /  1008.7hPa SW 0.6mph /  1km/h 6mph /  9.7km/h 42.8% 0.00in /  0mm 197 W/m2
17:14 87 °F /  30.6 °C 61.9 °F /  16.6 °C 29.79in /  1008.7hPa SW 0.3mph /  0.5km/h 6mph /  9.7km/h 43.2% 0.00in /  0mm 158 W/m2
17:19 87 °F /  30.6 °C 61.6 °F /  16.4 °C 29.79in /  1008.7hPa West 1.8mph /  2.9km/h 9mph /  14.5km/h 42.7% 0.00in /  0mm 121 W/m2
17:24 87 °F /  30.6 °C 61.1 °F /  16.2 °C 29.79in /  1008.7hPa WNW 3.9mph /  6.3km/h 10mph /  16.1km/h 42% 0.00in /  0mm 76 W/m2
17:29 86.7 °F /  30.4 °C 60.6 °F /  15.9 °C 29.79in /  1008.7hPa WNW 3mph /  4.8km/h 11mph /  17.7km/h 41.6% 0.00in /  0mm 79 W/m2
17:34 86.4 °F /  30.2 °C 61.2 °F /  16.2 °C 29.79in /  1008.7hPa NW 1.3mph /  2.1km/h 11mph /  17.7km/h 42.9% 0.00in /  0mm 79 W/m2
17:39 86.1 °F /  30.1 °C 60.7 °F /  15.9 °C 29.79in /  1008.7hPa NW 1.9mph /  3.1km/h 6mph /  9.7km/h 42.5% 0.00in /  0mm 74 W/m2
17:44 85.9 °F /  29.9 °C 60.7 °F /  15.9 °C 29.79in /  1008.7hPa NW 1mph /  1.6km/h 6mph /  9.7km/h 42.8% 0.00in /  0mm 65 W/m2
17:49 85.8 °F /  29.9 °C 60.3 °F /  15.7 °C 29.79in /  1008.7hPa NW 1.8mph /  2.9km/h 9mph /  14.5km/h 42.4% 0.00in /  0mm 56 W/m2
17:54 85.8 °F /  29.9 °C 60.6 °F /  15.9 °C 29.79in /  1008.7hPa NW 1.1mph /  1.8km/h 9mph /  14.5km/h 42.8% 0.00in /  0mm 60 W/m2
17:59 85.8 °F /  29.9 °C 60.5 °F /  15.8 °C 29.79in /  1008.7hPa NNE 0.1mph /  0.2km/h 9mph /  14.5km/h 42.6% 0.00in /  0mm 67 W/m2
18:04 85.9 °F /  29.9 °C 60.2 °F /  15.7 °C 29.78in /  1008.4hPa NE 0.6mph /  1km/h 9mph /  14.5km/h 42% 0.00in /  0mm 70 W/m2
18:09 85.9 °F /  29.9 °C 60.5 °F /  15.8 °C 29.79in /  1008.7hPa NNE 0.1mph /  0.2km/h 4mph /  6.4km/h 42.5% 0.00in /  0mm 72 W/m2
18:14 85.9 °F /  29.9 °C 60.2 °F /  15.7 °C 29.79in /  1008.7hPa NNE 0.2mph /  0.3km/h 4mph /  6.4km/h 42% 0.00in /  0mm 72 W/m2
18:19 85.9 °F /  29.9 °C 60.1 °F /  15.6 °C 29.79in /  1008.7hPa NE 1.1mph /  1.8km/h 4mph /  6.4km/h 42% 0.00in /  0mm 65 W/m2
18:24 85.8 °F /  29.9 °C 60.2 °F /  15.7 °C 29.79in /  1008.7hPa NE 1.1mph /  1.8km/h 4mph /  6.4km/h 42.2% 0.00in /  0mm 60 W/m2
18:29 85.7 °F /  29.8 °C 60.2 °F /  15.7 °C 29.79in /  1008.7hPa North 1.1mph /  1.8km/h 5mph /  8km/h 42.3% 0.00in /  0mm 47 W/m2
18:34 85.6 °F /  29.8 °C 60.6 °F /  15.9 °C 29.79in /  1008.7hPa NW 1.5mph /  2.4km/h 5mph /  8km/h 43% 0.00in /  0mm 39 W/m2
18:39 85.5 °F /  29.7 °C 60.7 °F /  15.9 °C 29.79in /  1008.7hPa NW 0.7mph /  1.1km/h 4mph /  6.4km/h 43.4% 0.00in /  0mm 33 W/m2
18:44 85.5 °F /  29.7 °C 60.5 °F /  15.8 °C 29.79in /  1008.7hPa Calm   4mph /  6.4km/h 43.1% 0.00in /  0mm 32 W/m2
18:49 85.4 °F /  29.7 °C 60.2 °F /  15.7 °C 29.79in /  1008.7hPa NW 0.1mph /  0.2km/h 4mph /  6.4km/h 42.7% 0.00in /  0mm 30 W/m2
18:54 85.4 °F /  29.7 °C 60.5 °F /  15.8 °C 29.79in /  1008.7hPa Calm   4mph /  6.4km/h 43.2% 0.00in /  0mm 28 W/m2
18:59 85.3 °F /  29.6 °C 61 °F /  16.1 °C 29.79in /  1008.7hPa NNW 0.6mph /  1km/h 4mph /  6.4km/h 44.1% 0.00in /  0mm 26 W/m2
19:04 85.2 °F /  29.6 °C 61.6 °F /  16.4 °C 29.79in /  1008.7hPa North 0.6mph /  1km/h 4mph /  6.4km/h 45.3% 0.00in /  0mm 25 W/m2
19:09 84.9 °F /  29.4 °C 61.9 °F /  16.6 °C 29.79in /  1008.7hPa North 0.6mph /  1km/h 3mph /  4.8km/h 46% 0.00in /  0mm 19 W/m2
19:14 84.6 °F /  29.2 °C 62 °F /  16.7 °C 29.80in /  1009hPa NNE 0.5mph /  0.8km/h 3mph /  4.8km/h 46.7% 0.00in /  0mm 14 W/m2
19:19 84.3 °F /  29.1 °C 61.9 °F /  16.6 °C 29.80in /  1009hPa Calm   3mph /  4.8km/h 47% 0.00in /  0mm 19 W/m2
19:24 84.1 °F /  28.9 °C 62.1 °F /  16.7 °C 29.80in /  1009hPa NNE 0.4mph /  0.6km/h 4mph /  6.4km/h 47.7% 0.00in /  0mm 18 W/m2
19:29 83.8 °F /  28.8 °C 62.3 °F /  16.8 °C 29.80in /  1009hPa NNE 0.1mph /  0.2km/h 4mph /  6.4km/h 48.4% 0.00in /  0mm 16 W/m2
19:34 83.6 °F /  28.7 °C 62.6 °F /  17 °C 29.80in /  1009hPa NNE 0.3mph /  0.5km/h 4mph /  6.4km/h 49.3% 0.00in /  0mm 14 W/m2
19:39 83.3 °F /  28.5 °C 62.7 °F /  17.1 °C 29.80in /  1009hPa Calm   3mph /  4.8km/h 50% 0.00in /  0mm 9 W/m2
19:44 83.1 °F /  28.4 °C 62.6 °F /  17 °C 29.80in /  1009hPa Calm   3mph /  4.8km/h 50.2% 0.00in /  0mm 7 W/m2
19:49 82.8 °F /  28.2 °C 62.8 °F /  17.1 °C 29.81in /  1009.4hPa Calm   3mph /  4.8km/h 51% 0.00in /  0mm 5 W/m2
19:54 82.6 °F /  28.1 °C 62.6 °F /  17 °C 29.81in /  1009.4hPa Calm   3mph /  4.8km/h 51% 0.00in /  0mm 0 W/m2
19:59 82.3 °F /  27.9 °C 62.6 °F /  17 °C 29.81in /  1009.4hPa Calm   3mph /  4.8km/h 51.3% 0.00in /  0mm 0 W/m2
20:00 82.2 °F /  27.9 °C 62.8 °F /  17.1 °C 29.81in /  1009.4hPa Calm   3mph /  4.8km/h 52% 0.00in /  0mm 0 W/m2
20:09 81.9 °F /  27.7 °C 62.5 °F /  16.9 °C 29.81in /  1009.4hPa Calm     52% 0.00in /  0mm 0 W/m2
20:14 81.6 °F /  27.6 °C 62.5 °F /  16.9 °C 29.82in /  1009.7hPa Calm     52.2% 0.00in /  0mm 0 W/m2
20:19 81.4 °F /  27.4 °C 62.6 °F /  17 °C 29.82in /  1009.7hPa Calm     53% 0.00in /  0mm 0 W/m2
20:24 81.2 °F /  27.3 °C 62.4 °F /  16.9 °C 29.82in /  1009.7hPa Calm     53% 0.00in /  0mm 0 W/m2
20:29 80.9 °F /  27.2 °C 62.7 °F /  17.1 °C 29.82in /  1009.7hPa Calm     53.9% 0.00in /  0mm 0 W/m2
20:34 80.6 °F /  27 °C 62.8 °F /  17.1 °C 29.82in /  1009.7hPa Calm     54.7% 0.00in /  0mm 0 W/m2
20:39 80.4 °F /  26.9 °C 63.2 °F /  17.3 °C 29.82in /  1009.7hPa Calm     55.9% 0.00in /  0mm 0 W/m2
20:44 80.1 °F /  26.7 °C 63.3 °F /  17.4 °C 29.82in /  1009.7hPa Calm     56.6% 0.00in /  0mm 0 W/m2
20:49 79.9 °F /  26.6 °C 64 °F /  17.8 °C 29.82in /  1009.7hPa Calm     58.5% 0.00in /  0mm 0 W/m2
20:54 79.6 °F /  26.4 °C 64.4 °F /  18 °C 29.83in /  1010hPa Calm     59.6% 0.00in /  0mm 0 W/m2
20:59 79.4 °F /  26.3 °C 64.4 °F /  18 °C 29.83in /  1010hPa Calm     60% 0.00in /  0mm 0 W/m2
21:04 79.2 °F /  26.2 °C 64.5 °F /  18.1 °C 29.83in /  1010hPa Calm     60.7% 0.00in /  0mm 0 W/m2
21:09 79 °F /  26.1 °C 64.7 °F /  18.2 °C 29.83in /  1010hPa Calm     61.5% 0.00in /  0mm 0 W/m2
21:14 78.8 °F /  26 °C 64.7 °F /  18.2 °C 29.83in /  1010hPa Calm     62% 0.00in /  0mm 0 W/m2
21:19 78.6 °F /  25.9 °C 64.9 °F /  18.3 °C 29.83in /  1010hPa Calm     62.8% 0.00in /  0mm 0 W/m2
21:24 78.4 °F /  25.8 °C 64.8 °F /  18.2 °C 29.84in /  1010.4hPa Calm     63% 0.00in /  0mm 0 W/m2
21:29 78.2 °F /  25.7 °C 65 °F /  18.3 °C 29.84in /  1010.4hPa Calm     63.9% 0.00in /  0mm 0 W/m2
21:34 78 °F /  25.6 °C 65.1 °F /  18.4 °C 29.84in /  1010.4hPa Calm     64.6% 0.00in /  0mm 0 W/m2
21:39 77.8 °F /  25.4 °C 65.1 °F /  18.4 °C 29.85in /  1010.7hPa Calm     65% 0.00in /  0mm 0 W/m2
21:44 77.6 °F /  25.3 °C 65 °F /  18.3 °C 29.85in /  1010.7hPa NNE 0.3mph /  0.5km/h 4mph /  6.4km/h 65.2% 0.00in /  0mm 0 W/m2
21:49 77.5 °F /  25.3 °C 65.4 °F /  18.6 °C 29.85in /  1010.7hPa NNE 0.2mph /  0.3km/h 4mph /  6.4km/h 66.3% 0.00in /  0mm 0 W/m2
21:54 77.3 °F /  25.2 °C 65.7 °F /  18.7 °C 29.86in /  1011.1hPa North 0.3mph /  0.5km/h 5mph /  8km/h 67.4% 0.00in /  0mm 0 W/m2
21:59 77.1 °F /  25.1 °C 65.4 °F /  18.6 °C 29.86in /  1011.1hPa NNW 0.1mph /  0.2km/h 5mph /  8km/h 67.1% 0.00in /  0mm 0 W/m2
22:04 77.1 °F /  25.1 °C 64.9 °F /  18.3 °C 29.86in /  1011.1hPa WNW 2.3mph /  3.7km/h 15mph /  24.1km/h 66.1% 0.00in /  0mm 0 W/m2
22:09 77.2 °F /  25.1 °C 64.3 °F /  17.9 °C 29.87in /  1011.4hPa NW 2.3mph /  3.7km/h 15mph /  24.1km/h 64.4% 0.00in /  0mm 0 W/m2
22:14 77.2 °F /  25.1 °C 63.3 °F /  17.4 °C 29.87in /  1011.4hPa NW 0.3mph /  0.5km/h 15mph /  24.1km/h 62.1% 0.00in /  0mm 0 W/m2
22:19 77.2 °F /  25.1 °C 63.1 °F /  17.3 °C 29.87in /  1011.4hPa WNW 0.9mph /  1.4km/h 15mph /  24.1km/h 61.8% 0.00in /  0mm 0 W/m2
22:24 77.2 °F /  25.1 °C 63.3 °F /  17.4 °C 29.87in /  1011.4hPa NW 1.4mph /  2.3km/h 15mph /  24.1km/h 62.1% 0.00in /  0mm 0 W/m2
22:29 77.2 °F /  25.1 °C 64 °F /  17.8 °C 29.88in /  1011.7hPa WNW 0.9mph /  1.4km/h 15mph /  24.1km/h 63.9% 0.00in /  0mm 0 W/m2
22:34 77 °F /  25 °C 64.5 °F /  18.1 °C 29.88in /  1011.7hPa NW 0.3mph /  0.5km/h 15mph /  24.1km/h 65.2% 0.00in /  0mm 0 W/m2
22:39 76.7 °F /  24.8 °C 64.6 °F /  18.1 °C 29.87in /  1011.4hPa NW 0.2mph /  0.3km/h 4mph /  6.4km/h 66.2% 0.00in /  0mm 0 W/m2
22:44 76.4 °F /  24.7 °C 64.7 °F /  18.2 °C 29.87in /  1011.4hPa NW 0.4mph /  0.6km/h 4mph /  6.4km/h 67.2% 0.00in /  0mm 0 W/m2
22:49 76 °F /  24.4 °C 64.5 °F /  18.1 °C 29.87in /  1011.4hPa Calm   4mph /  6.4km/h 67.7% 0.00in /  0mm 0 W/m2
22:54 75.7 °F /  24.3 °C 64.6 °F /  18.1 °C 29.87in /  1011.4hPa Calm   4mph /  6.4km/h 68.6% 0.00in /  0mm 0 W/m2
22:59 75.4 °F /  24.1 °C 65.1 °F /  18.4 °C 29.87in /  1011.4hPa Calm   4mph /  6.4km/h 70.3% 0.01in /  0.25mm 0 W/m2
23:04 75.1 °F /  23.9 °C 65.5 °F /  18.6 °C 29.88in /  1011.7hPa Calm   4mph /  6.4km/h 72.2% 0.01in /  0.25mm 0 W/m2
23:09 74.7 °F /  23.7 °C 66 °F /  18.9 °C 29.87in /  1011.4hPa Calm     74.3% 0.01in /  0.25mm 0 W/m2
23:14 74.3 °F /  23.5 °C 66.3 °F /  19.1 °C 29.87in /  1011.4hPa Calm     76% 0.01in /  0.25mm 0 W/m2
23:19 73.9 °F /  23.3 °C 65.9 °F /  18.8 °C 29.87in /  1011.4hPa Calm     76% 0.01in /  0.25mm 0 W/m2
23:24 73.5 °F /  23.1 °C 65.6 °F /  18.7 °C 29.87in /  1011.4hPa Calm     76.3% 0.01in /  0.25mm 0 W/m2
23:29 73.2 °F /  22.9 °C 65.7 °F /  18.7 °C 29.88in /  1011.7hPa Calm     77.5% 0.01in /  0.25mm 0 W/m2
23:34 73 °F /  22.8 °C 66.2 °F /  19 °C 29.88in /  1011.7hPa Calm     79.2% 0.01in /  0.25mm 0 W/m2
23:39 72.8 °F /  22.7 °C 66.4 °F /  19.1 °C 29.88in /  1011.7hPa Calm     80.4% 0.01in /  0.25mm 0 W/m2
23:44 72.6 °F /  22.6 °C 66.4 °F /  19.1 °C 29.88in /  1011.7hPa Calm     81% 0.01in /  0.25mm 0 W/m2
23:49 72.4 °F /  22.4 °C 66.6 °F /  19.2 °C 29.88in /  1011.7hPa Calm     81.9% 0.01in /  0.25mm 0 W/m2
23:54 72.3 °F /  22.4 °C 66.5 °F /  19.2 °C 29.88in /  1011.7hPa Calm     82.2% 0.01in /  0.25mm 0 W/m2
23:59 72.1 °F /  22.3 °C 66.7 °F /  19.3 °C 29.88in /  1011.7hPa Calm     83% 0.01in /  0.25mm 0 W/m2
Hartford County Weather
Compliments of Weather Underground - 2 mb